sensor_id;sensor_type;location;lat;lon;timestamp;temperature;humidity
19385;DHT22;9828;54.122;17.974;2023-02-03T00:03:26;-0.70;1.00
19385;DHT22;9828;54.122;17.974;2023-02-03T00:08:47;-0.70;1.30
19385;DHT22;9828;54.122;17.974;2023-02-03T00:14:09;-0.90;1.00
19385;DHT22;9828;54.122;17.974;2023-02-03T00:19:31;-1.00;9.60
19385;DHT22;9828;54.122;17.974;2023-02-03T00:24:52;-1.00;25.30
19385;DHT22;9828;54.122;17.974;2023-02-03T00:30:13;-1.00;20.80
19385;DHT22;9828;54.122;17.974;2023-02-03T00:35:37;-1.00;8.60
19385;DHT22;9828;54.122;17.974;2023-02-03T00:41:00;-1.10;13.80
19385;DHT22;9828;54.122;17.974;2023-02-03T00:46:21;-1.10;9.40
19385;DHT22;9828;54.122;17.974;2023-02-03T00:51:42;-1.10;15.50
19385;DHT22;9828;54.122;17.974;2023-02-03T00:57:04;-1.20;22.50
19385;DHT22;9828;54.122;17.974;2023-02-03T01:02:25;-1.10;13.00
19385;DHT22;9828;54.122;17.974;2023-02-03T01:07:46;-1.00;15.30
19385;DHT22;9828;54.122;17.974;2023-02-03T01:13:07;-1.00;6.80
19385;DHT22;9828;54.122;17.974;2023-02-03T01:18:28;-1.00;7.90
19385;DHT22;9828;54.122;17.974;2023-02-03T01:23:50;-1.10;1.80
19385;DHT22;9828;54.122;17.974;2023-02-03T01:29:11;-1.10;1.00
19385;DHT22;9828;54.122;17.974;2023-02-03T01:34:33;-1.10;2.30
19385;DHT22;9828;54.122;17.974;2023-02-03T01:39:54;-1.10;1.00
19385;DHT22;9828;54.122;17.974;2023-02-03T01:45:18;-1.10;2.30
19385;DHT22;9828;54.122;17.974;2023-02-03T01:50:40;-1.10;1.00
19385;DHT22;9828;54.122;17.974;2023-02-03T01:56:02;-1.00;1.00
19385;DHT22;9828;54.122;17.974;2023-02-03T02:01:25;-1.10;2.60
19385;DHT22;9828;54.122;17.974;2023-02-03T02:06:49;-1.10;5.20
19385;DHT22;9828;54.122;17.974;2023-02-03T02:12:11;-1.10;16.50
19385;DHT22;9828;54.122;17.974;2023-02-03T02:17:43;-1.10;1.00
19385;DHT22;9828;54.122;17.974;2023-02-03T02:40:14;-1.20;25.40
19385;DHT22;9828;54.122;17.974;2023-02-03T02:51:03;-1.20;18.30
19385;DHT22;9828;54.122;17.974;2023-02-03T02:56:27;-1.10;20.80
19385;DHT22;9828;54.122;17.974;2023-02-03T03:01:51;-1.10;28.10
19385;DHT22;9828;54.122;17.974;2023-02-03T03:07:16;-1.00;19.10
19385;DHT22;9828;54.122;17.974;2023-02-03T03:12:44;-1.10;25.70
19385;DHT22;9828;54.122;17.974;2023-02-03T03:18:09;-1.00;26.60
19385;DHT22;9828;54.122;17.974;2023-02-03T03:23:38;-1.00;30.00
19385;DHT22;9828;54.122;17.974;2023-02-03T03:29:26;-0.90;33.40
19385;DHT22;9828;54.122;17.974;2023-02-03T03:34:50;-0.90;37.10
19385;DHT22;9828;54.122;17.974;2023-02-03T03:40:17;-0.80;32.70
19385;DHT22;9828;54.122;17.974;2023-02-03T03:45:44;-0.70;35.50
19385;DHT22;9828;54.122;17.974;2023-02-03T03:51:15;-0.70;31.80
19385;DHT22;9828;54.122;17.974;2023-02-03T03:56:43;-0.70;40.00
19385;DHT22;9828;54.122;17.974;2023-02-03T04:02:06;-0.70;60.00
19385;DHT22;9828;54.122;17.974;2023-02-03T04:07:42;-0.70;56.40
19385;DHT22;9828;54.122;17.974;2023-02-03T04:13:04;-0.60;65.00
19385;DHT22;9828;54.122;17.974;2023-02-03T04:18:26;-0.60;58.00
19385;DHT22;9828;54.122;17.974;2023-02-03T04:23:47;-0.50;75.20
19385;DHT22;9828;54.122;17.974;2023-02-03T04:29:10;-0.50;76.90
19385;DHT22;9828;54.122;17.974;2023-02-03T04:34:31;-0.40;90.10
19385;DHT22;9828;54.122;17.974;2023-02-03T04:39:53;-0.40;79.40
19385;DHT22;9828;54.122;17.974;2023-02-03T04:45:15;-0.30;74.20
19385;DHT22;9828;54.122;17.974;2023-02-03T04:50:36;-0.30;80.30
19385;DHT22;9828;54.122;17.974;2023-02-03T04:55:57;-0.30;82.80
19385;DHT22;9828;54.122;17.974;2023-02-03T05:01:19;-0.40;87.80
19385;DHT22;9828;54.122;17.974;2023-02-03T05:06:41;-0.40;83.20
19385;DHT22;9828;54.122;17.974;2023-02-03T05:12:02;-0.30;65.20
19385;DHT22;9828;54.122;17.974;2023-02-03T05:17:24;-0.40;67.20
19385;DHT22;9828;54.122;17.974;2023-02-03T05:22:45;-0.40;73.30
19385;DHT22;9828;54.122;17.974;2023-02-03T05:28:08;-0.40;62.10
19385;DHT22;9828;54.122;17.974;2023-02-03T05:33:30;-0.40;83.40
19385;DHT22;9828;54.122;17.974;2023-02-03T05:38:55;-0.40;81.70
19385;DHT22;9828;54.122;17.974;2023-02-03T05:44:26;-0.50;92.20
19385;DHT22;9828;54.122;17.974;2023-02-03T05:49:48;-0.50;92.10
19385;DHT22;9828;54.122;17.974;2023-02-03T05:55:09;-0.50;87.00
19385;DHT22;9828;54.122;17.974;2023-02-03T06:00:31;-0.50;80.70
19385;DHT22;9828;54.122;17.974;2023-02-03T06:05:53;-0.50;78.20
19385;DHT22;9828;54.122;17.974;2023-02-03T06:11:14;-0.50;91.70
19385;DHT22;9828;54.122;17.974;2023-02-03T06:16:35;-0.50;75.30
19385;DHT22;9828;54.122;17.974;2023-02-03T06:21:57;-0.40;93.60
19385;DHT22;9828;54.122;17.974;2023-02-03T06:27:18;-0.40;90.20
19385;DHT22;9828;54.122;17.974;2023-02-03T06:32:39;-0.40;68.00
19385;DHT22;9828;54.122;17.974;2023-02-03T06:38:00;-0.40;74.80
19385;DHT22;9828;54.122;17.974;2023-02-03T06:43:22;-0.30;71.50
19385;DHT22;9828;54.122;17.974;2023-02-03T06:48:43;-0.30;55.50
19385;DHT22;9828;54.122;17.974;2023-02-03T06:54:05;-0.20;69.40
19385;DHT22;9828;54.122;17.974;2023-02-03T06:59:27;-0.20;53.10
19385;DHT22;9828;54.122;17.974;2023-02-03T07:04:49;-0.20;64.90
19385;DHT22;9828;54.122;17.974;2023-02-03T07:10:10;-0.10;58.20
19385;DHT22;9828;54.122;17.974;2023-02-03T07:15:31;-0.10;55.20
19385;DHT22;9828;54.122;17.974;2023-02-03T07:20:53;-0.10;70.40
19385;DHT22;9828;54.122;17.974;2023-02-03T07:26:15;-0.10;52.90
19385;DHT22;9828;54.122;17.974;2023-02-03T07:31:37;-0.10;56.00
19385;DHT22;9828;54.122;17.974;2023-02-03T07:36:59;-0.10;60.80
19385;DHT22;9828;54.122;17.974;2023-02-03T07:42:20;-0.10;69.70
19385;DHT22;9828;54.122;17.974;2023-02-03T07:47:43;0.00;56.50
19385;DHT22;9828;54.122;17.974;2023-02-03T07:53:05;0.20;91.60
19385;DHT22;9828;54.122;17.974;2023-02-03T07:58:27;0.40;89.20
19385;DHT22;9828;54.122;17.974;2023-02-03T08:03:48;0.50;43.40
19385;DHT22;9828;54.122;17.974;2023-02-03T08:09:09;0.50;49.70
19385;DHT22;9828;54.122;17.974;2023-02-03T08:14:30;0.50;31.70
19385;DHT22;9828;54.122;17.974;2023-02-03T08:19:52;0.40;25.60
19385;DHT22;9828;54.122;17.974;2023-02-03T08:25:13;0.30;31.40
19385;DHT22;9828;54.122;17.974;2023-02-03T08:30:35;0.20;45.40
19385;DHT22;9828;54.122;17.974;2023-02-03T08:35:57;0.20;79.40
19385;DHT22;9828;54.122;17.974;2023-02-03T08:41:21;0.20;45.80
19385;DHT22;9828;54.122;17.974;2023-02-03T08:46:42;0.20;59.50
19385;DHT22;9828;54.122;17.974;2023-02-03T08:52:06;0.20;56.10
19385;DHT22;9828;54.122;17.974;2023-02-03T08:57:34;0.20;58.50
19385;DHT22;9828;54.122;17.974;2023-02-03T09:02:56;0.30;91.10
19385;DHT22;9828;54.122;17.974;2023-02-03T09:08:17;0.20;87.00
19385;DHT22;9828;54.122;17.974;2023-02-03T09:13:39;0.20;99.50
19385;DHT22;9828;54.122;17.974;2023-02-03T09:19:02;0.00;93.30
19385;DHT22;9828;54.122;17.974;2023-02-03T09:24:26;0.00;99.90
19385;DHT22;9828;54.122;17.974;2023-02-03T09:29:47;0.10;99.90
19385;DHT22;9828;54.122;17.974;2023-02-03T09:35:08;0.10;99.90
19385;DHT22;9828;54.122;17.974;2023-02-03T09:40:33;0.10;99.90
19385;DHT22;9828;54.122;17.974;2023-02-03T09:46:01;0.00;99.90
19385;DHT22;9828;54.122;17.974;2023-02-03T09:51:46;0.00;99.90
19385;DHT22;9828;54.122;17.974;2023-02-03T09:57:20;0.00;99.90
19385;DHT22;9828;54.122;17.974;2023-02-03T10:03:06;0.10;99.90
19385;DHT22;9828;54.122;17.974;2023-02-03T10:14:49;0.20;99.90
19385;DHT22;9828;54.122;17.974;2023-02-03T10:20:21;0.20;99.90
19385;DHT22;9828;54.122;17.974;2023-02-03T10:25:51;0.20;99.90
19385;DHT22;9828;54.122;17.974;2023-02-03T10:31:20;0.20;99.90
19385;DHT22;9828;54.122;17.974;2023-02-03T10:42:04;0.40;99.90
19385;DHT22;9828;54.122;17.974;2023-02-03T10:47:33;0.30;99.90
19385;DHT22;9828;54.122;17.974;2023-02-03T10:53:19;0.60;99.90
19385;DHT22;9828;54.122;17.974;2023-02-03T10:58:53;0.60;99.90
19385;DHT22;9828;54.122;17.974;2023-02-03T11:04:31;0.70;99.90
19385;DHT22;9828;54.122;17.974;2023-02-03T11:09:54;0.70;99.90
19385;DHT22;9828;54.122;17.974;2023-02-03T11:15:16;0.60;99.90
19385;DHT22;9828;54.122;17.974;2023-02-03T11:20:37;0.70;99.90
19385;DHT22;9828;54.122;17.974;2023-02-03T11:26:03;0.70;99.90
19385;DHT22;9828;54.122;17.974;2023-02-03T11:31:31;0.60;99.90
19385;DHT22;9828;54.122;17.974;2023-02-03T11:36:53;0.60;99.90
19385;DHT22;9828;54.122;17.974;2023-02-03T11:42:22;0.60;99.90
19385;DHT22;9828;54.122;17.974;2023-02-03T12:05:44;0.50;99.90
19385;DHT22;9828;54.122;17.974;2023-02-03T12:11:17;0.60;99.90
19385;DHT22;9828;54.122;17.974;2023-02-03T12:17:15;0.60;99.90
19385;DHT22;9828;54.122;17.974;2023-02-03T12:22:56;0.50;99.90
19385;DHT22;9828;54.122;17.974;2023-02-03T12:34:20;0.40;99.90
19385;DHT22;9828;54.122;17.974;2023-02-03T12:45:11;0.40;99.90
19385;DHT22;9828;54.122;17.974;2023-02-03T12:50:47;0.40;99.90
19385;DHT22;9828;54.122;17.974;2023-02-03T12:56:14;0.40;99.90
19385;DHT22;9828;54.122;17.974;2023-02-03T13:01:55;0.50;99.90
19385;DHT22;9828;54.122;17.974;2023-02-03T13:12:48;0.60;99.90
19385;DHT22;9828;54.122;17.974;2023-02-03T13:18:33;0.70;99.90
19385;DHT22;9828;54.122;17.974;2023-02-03T13:23:55;0.80;99.90
19385;DHT22;9828;54.122;17.974;2023-02-03T13:46:47;1.00;99.90
19385;DHT22;9828;54.122;17.974;2023-02-03T13:52:27;1.00;99.90
19385;DHT22;9828;54.122;17.974;2023-02-03T13:57:50;1.00;99.90
19385;DHT22;9828;54.122;17.974;2023-02-03T14:08:59;1.00;99.90
19385;DHT22;9828;54.122;17.974;2023-02-03T14:25:17;1.00;99.90
19385;DHT22;9828;54.122;17.974;2023-02-03T14:31:10;1.00;99.90
19385;DHT22;9828;54.122;17.974;2023-02-03T14:53:37;0.80;99.90
19385;DHT22;9828;54.122;17.974;2023-02-03T14:59:01;0.80;99.90
19385;DHT22;9828;54.122;17.974;2023-02-03T15:04:24;0.80;99.90
19385;DHT22;9828;54.122;17.974;2023-02-03T15:09:49;0.80;99.90
19385;DHT22;9828;54.122;17.974;2023-02-03T15:15:13;0.70;99.90
19385;DHT22;9828;54.122;17.974;2023-02-03T15:20:39;0.70;99.90
19385;DHT22;9828;54.122;17.974;2023-02-03T15:26:08;0.60;99.90
19385;DHT22;9828;54.122;17.974;2023-02-03T15:31:37;0.60;99.90
19385;DHT22;9828;54.122;17.974;2023-02-03T15:37:08;0.50;99.90
19385;DHT22;9828;54.122;17.974;2023-02-03T15:48:20;0.40;99.90
19385;DHT22;9828;54.122;17.974;2023-02-03T15:53:51;0.50;99.90
19385;DHT22;9828;54.122;17.974;2023-02-03T15:59:38;0.50;99.90
19385;DHT22;9828;54.122;17.974;2023-02-03T16:10:43;0.50;99.90
19385;DHT22;9828;54.122;17.974;2023-02-03T16:16:17;0.50;99.90
19385;DHT22;9828;54.122;17.974;2023-02-03T16:21:53;0.40;99.90
19385;DHT22;9828;54.122;17.974;2023-02-03T16:33:13;0.40;99.90
19385;DHT22;9828;54.122;17.974;2023-02-03T16:38:53;0.30;99.90
19385;DHT22;9828;54.122;17.974;2023-02-03T16:44:33;0.30;99.90
19385;DHT22;9828;54.122;17.974;2023-02-03T16:50:18;0.30;99.90
19385;DHT22;9828;54.122;17.974;2023-02-03T16:56:01;0.30;99.90
19385;DHT22;9828;54.122;17.974;2023-02-03T17:01:24;0.30;99.90
19385;DHT22;9828;54.122;17.974;2023-02-03T17:06:45;0.30;99.90
19385;DHT22;9828;54.122;17.974;2023-02-03T17:12:11;0.30;99.90
19385;DHT22;9828;54.122;17.974;2023-02-03T17:17:32;0.40;99.90
19385;DHT22;9828;54.122;17.974;2023-02-03T17:22:54;0.40;99.90
19385;DHT22;9828;54.122;17.974;2023-02-03T17:28:15;0.30;99.90
19385;DHT22;9828;54.122;17.974;2023-02-03T17:33:37;0.40;99.90
19385;DHT22;9828;54.122;17.974;2023-02-03T17:38:59;0.30;99.90
19385;DHT22;9828;54.122;17.974;2023-02-03T17:44:37;0.30;99.90
19385;DHT22;9828;54.122;17.974;2023-02-03T17:50:15;0.30;99.90
19385;DHT22;9828;54.122;17.974;2023-02-03T17:55:54;0.30;99.90
19385;DHT22;9828;54.122;17.974;2023-02-03T18:01:18;0.20;99.90
19385;DHT22;9828;54.122;17.974;2023-02-03T18:06:39;0.20;99.90
19385;DHT22;9828;54.122;17.974;2023-02-03T18:12:01;0.10;99.90
19385;DHT22;9828;54.122;17.974;2023-02-03T18:17:22;0.10;99.90
19385;DHT22;9828;54.122;17.974;2023-02-03T18:22:43;0.10;99.90
19385;DHT22;9828;54.122;17.974;2023-02-03T18:28:04;0.10;99.90
19385;DHT22;9828;54.122;17.974;2023-02-03T18:33:26;0.10;99.90
19385;DHT22;9828;54.122;17.974;2023-02-03T18:38:47;0.10;99.90
19385;DHT22;9828;54.122;17.974;2023-02-03T18:44:09;0.10;97.50
19385;DHT22;9828;54.122;17.974;2023-02-03T18:49:30;0.10;99.90
19385;DHT22;9828;54.122;17.974;2023-02-03T18:54:51;0.20;99.90
19385;DHT22;9828;54.122;17.974;2023-02-03T19:00:13;0.20;99.90
19385;DHT22;9828;54.122;17.974;2023-02-03T19:05:37;0.20;95.50
19385;DHT22;9828;54.122;17.974;2023-02-03T19:10:58;0.20;89.30
19385;DHT22;9828;54.122;17.974;2023-02-03T19:16:22;0.20;84.30
19385;DHT22;9828;54.122;17.974;2023-02-03T19:21:44;0.20;76.30
19385;DHT22;9828;54.122;17.974;2023-02-03T19:27:05;0.20;87.70
19385;DHT22;9828;54.122;17.974;2023-02-03T19:32:27;0.20;96.30
19385;DHT22;9828;54.122;17.974;2023-02-03T19:37:48;0.30;91.30
19385;DHT22;9828;54.122;17.974;2023-02-03T19:43:09;0.20;85.90
19385;DHT22;9828;54.122;17.974;2023-02-03T19:48:31;0.20;92.20
19385;DHT22;9828;54.122;17.974;2023-02-03T19:53:53;0.20;83.70
19385;DHT22;9828;54.122;17.974;2023-02-03T19:59:15;0.30;81.40
19385;DHT22;9828;54.122;17.974;2023-02-03T20:04:36;0.20;72.80
19385;DHT22;9828;54.122;17.974;2023-02-03T20:09:57;0.20;82.10
19385;DHT22;9828;54.122;17.974;2023-02-03T20:15:20;0.10;59.70
19385;DHT22;9828;54.122;17.974;2023-02-03T20:20:41;0.10;64.30
19385;DHT22;9828;54.122;17.974;2023-02-03T20:26:03;0.00;55.80
19385;DHT22;9828;54.122;17.974;2023-02-03T20:31:24;0.00;68.50
19385;DHT22;9828;54.122;17.974;2023-02-03T20:36:45;-0.10;66.40
19385;DHT22;9828;54.122;17.974;2023-02-03T20:42:14;-0.10;56.80
19385;DHT22;9828;54.122;17.974;2023-02-03T20:47:36;-0.10;81.50
19385;DHT22;9828;54.122;17.974;2023-02-03T20:52:57;-0.10;70.70
19385;DHT22;9828;54.122;17.974;2023-02-03T20:58:26;-0.10;63.20
19385;DHT22;9828;54.122;17.974;2023-02-03T21:03:48;-0.10;65.50
19385;DHT22;9828;54.122;17.974;2023-02-03T21:09:27;-0.10;90.70
19385;DHT22;9828;54.122;17.974;2023-02-03T21:14:51;-0.10;96.30
19385;DHT22;9828;54.122;17.974;2023-02-03T21:20:27;-0.10;99.90
19385;DHT22;9828;54.122;17.974;2023-02-03T21:25:49;0.00;99.90
19385;DHT22;9828;54.122;17.974;2023-02-03T21:31:21;0.00;99.90
19385;DHT22;9828;54.122;17.974;2023-02-03T21:36:42;0.00;99.90
19385;DHT22;9828;54.122;17.974;2023-02-03T21:42:27;0.10;99.90
19385;DHT22;9828;54.122;17.974;2023-02-03T21:53:49;0.10;99.90
19385;DHT22;9828;54.122;17.974;2023-02-03T21:59:18;0.10;99.90
19385;DHT22;9828;54.122;17.974;2023-02-03T22:04:40;0.10;99.90
19385;DHT22;9828;54.122;17.974;2023-02-03T22:10:02;0.10;99.90
19385;DHT22;9828;54.122;17.974;2023-02-03T22:15:24;0.10;99.90
19385;DHT22;9828;54.122;17.974;2023-02-03T22:20:45;0.10;99.90
19385;DHT22;9828;54.122;17.974;2023-02-03T22:26:08;0.00;95.90
19385;DHT22;9828;54.122;17.974;2023-02-03T22:31:29;0.00;95.80
19385;DHT22;9828;54.122;17.974;2023-02-03T22:36:50;0.00;51.80
19385;DHT22;9828;54.122;17.974;2023-02-03T22:42:12;-0.10;26.20
19385;DHT22;9828;54.122;17.974;2023-02-03T22:47:34;-0.10;1.00
19385;DHT22;9828;54.122;17.974;2023-02-03T22:52:56;-0.20;8.00
19385;DHT22;9828;54.122;17.974;2023-02-03T22:58:17;-0.20;6.40
19385;DHT22;9828;54.122;17.974;2023-02-03T23:03:38;-0.20;10.40
19385;DHT22;9828;54.122;17.974;2023-02-03T23:09:00;-0.20;13.70
19385;DHT22;9828;54.122;17.974;2023-02-03T23:14:21;-0.30;1.60
19385;DHT22;9828;54.122;17.974;2023-02-03T23:19:43;-0.20;1.00
19385;DHT22;9828;54.122;17.974;2023-02-03T23:25:04;-0.20;12.80
19385;DHT22;9828;54.122;17.974;2023-02-03T23:30:26;-0.20;13.90
19385;DHT22;9828;54.122;17.974;2023-02-03T23:35:47;-0.40;16.40
19385;DHT22;9828;54.122;17.974;2023-02-03T23:41:09;-0.50;22.10
19385;DHT22;9828;54.122;17.974;2023-02-03T23:46:31;-0.50;1.20
19385;DHT22;9828;54.122;17.974;2023-02-03T23:51:52;-0.50;4.90
19385;DHT22;9828;54.122;17.974;2023-02-03T23:57:13;-0.50;5.90
